Main page
METAR-TAF:

METAR-TAF

Airports :

Sitiawan Airport

Sitiawan, Malaysia

latitude: 04-13N, longitude: 100-42E, elevation: 7 m

Current weather observation

The report was made 56 minutes ago, at 06:00 UTC
Wind 5 kt from the West, varying between Southwest and North/Northeast
Temperature 34°C
Humidity 67%
Pressure 1007 hPa
Visibility 10 km or more
Scattered clouds at a height of 2000 ft

METAR: WMBA 220600Z 28005KT 220V020 9999 SCT020 34/27 Q1007

Time: 14:56 (06:56 UTC)


TAF: missing

Weather observations and forecasts of more than 4000 airports (METAR and TAF reports).

The available stations are represented by yellow and red dots on the map.

Hover mouse over dot to see the name of the station.

Then click to see weather observations and forecasts.

To change the map : click on the green buttons with a black cross to zoom in, on the green button with a dash to zoom out, or on the green arrows for adjacent maps.


METAR-TAF: